sensor_id;sensor_type;location;lat;lon;timestamp;P1;P2;P0
68713;PMS7003;55690;51.566;19.198;2024-03-08T00:03:27;18;11;8
68713;PMS7003;55690;51.566;19.198;2024-03-08T00:07:37;23;20;11
68713;PMS7003;55690;51.566;19.198;2024-03-08T00:11:40;10;10;6
68713;PMS7003;55690;51.566;19.198;2024-03-08T00:15:46;15;14;8
68713;PMS7003;55690;51.566;19.198;2024-03-08T00:19:52;18;16;11
68713;PMS7003;55690;51.566;19.198;2024-03-08T00:23:59;11;10;6
68713;PMS7003;55690;51.566;19.198;2024-03-08T00:28:05;13;9;7
68713;PMS7003;55690;51.566;19.198;2024-03-08T00:32:11;28;12;10
68713;PMS7003;55690;51.566;19.198;2024-03-08T00:36:17;17;10;7
68713;PMS7003;55690;51.566;19.198;2024-03-08T00:40:23;12;7;6
68713;PMS7003;55690;51.566;19.198;2024-03-08T00:44:29;13;8;6
68713;PMS7003;55690;51.566;19.198;2024-03-08T00:48:35;12;11;7
68713;PMS7003;55690;51.566;19.198;2024-03-08T00:52:42;17;15;10
68713;PMS7003;55690;51.566;19.198;2024-03-08T00:56:48;13;7;5
68713;PMS7003;55690;51.566;19.198;2024-03-08T01:00:54;16;8;5
68713;PMS7003;55690;51.566;19.198;2024-03-08T01:05:00;21;16;10
68713;PMS7003;55690;51.566;19.198;2024-03-08T01:09:06;13;11;7
68713;PMS7003;55690;51.566;19.198;2024-03-08T01:13:13;19;11;6
68713;PMS7003;55690;51.566;19.198;2024-03-08T01:17:19;14;8;6
68713;PMS7003;55690;51.566;19.198;2024-03-08T01:21:25;23;15;10
68713;PMS7003;55690;51.566;19.198;2024-03-08T01:25:32;18;9;6
68713;PMS7003;55690;51.566;19.198;2024-03-08T01:29:37;11;10;6
68713;PMS7003;55690;51.566;19.198;2024-03-08T01:33:43;18;12;5
68713;PMS7003;55690;51.566;19.198;2024-03-08T01:37:50;13;10;8
68713;PMS7003;55690;51.566;19.198;2024-03-08T01:41:56;10;5;5
68713;PMS7003;55690;51.566;19.198;2024-03-08T01:46:02;10;8;5
68713;PMS7003;55690;51.566;19.198;2024-03-08T01:50:08;8;7;5
68713;PMS7003;55690;51.566;19.198;2024-03-08T01:54:18;12;8;4
68713;PMS7003;55690;51.566;19.198;2024-03-08T01:58:21;16;7;5
68713;PMS7003;55690;51.566;19.198;2024-03-08T02:02:27;11;10;6
68713;PMS7003;55690;51.566;19.198;2024-03-08T02:06:33;14;7;6
68713;PMS7003;55690;51.566;19.198;2024-03-08T02:10:45;9;8;5
68713;PMS7003;55690;51.566;19.198;2024-03-08T02:14:47;7;4;2
68713;PMS7003;55690;51.566;19.198;2024-03-08T02:18:52;20;10;8
68713;PMS7003;55690;51.566;19.198;2024-03-08T02:22:58;17;12;6
68713;PMS7003;55690;51.566;19.198;2024-03-08T02:27:05;7;5;4
68713;PMS7003;55690;51.566;19.198;2024-03-08T02:31:11;9;3;2
68713;PMS7003;55690;51.566;19.198;2024-03-08T02:35:17;18;9;6
68713;PMS7003;55690;51.566;19.198;2024-03-08T02:39:23;9;8;6
68713;PMS7003;55690;51.566;19.198;2024-03-08T02:43:29;13;9;7
68713;PMS7003;55690;51.566;19.198;2024-03-08T02:47:36;8;8;6
68713;PMS7003;55690;51.566;19.198;2024-03-08T02:51:42;9;7;3
68713;PMS7003;55690;51.566;19.198;2024-03-08T02:55:48;13;12;6
68713;PMS7003;55690;51.566;19.198;2024-03-08T02:59:54;16;9;6
68713;PMS7003;55690;51.566;19.198;2024-03-08T03:04:00;10;8;5
68713;PMS7003;55690;51.566;19.198;2024-03-08T03:08:07;22;9;6
68713;PMS7003;55690;51.566;19.198;2024-03-08T03:12:13;8;7;4
68713;PMS7003;55690;51.566;19.198;2024-03-08T03:16:19;10;9;5
68713;PMS7003;55690;51.566;19.198;2024-03-08T03:20:25;13;12;5
68713;PMS7003;55690;51.566;19.198;2024-03-08T03:24:39;12;7;6
68713;PMS7003;55690;51.566;19.198;2024-03-08T03:28:43;14;9;6
68713;PMS7003;55690;51.566;19.198;2024-03-08T03:32:44;16;7;6
68713;PMS7003;55690;51.566;19.198;2024-03-08T03:36:50;7;6;5
68713;PMS7003;55690;51.566;19.198;2024-03-08T03:40:56;8;6;4
68713;PMS7003;55690;51.566;19.198;2024-03-08T03:45:08;8;7;5
68713;PMS7003;55690;51.566;19.198;2024-03-08T03:49:10;11;7;4
68713;PMS7003;55690;51.566;19.198;2024-03-08T03:53:15;20;10;6
68713;PMS7003;55690;51.566;19.198;2024-03-08T03:57:21;15;12;8
68713;PMS7003;55690;51.566;19.198;2024-03-08T04:01:27;10;7;5
68713;PMS7003;55690;51.566;19.198;2024-03-08T04:05:33;9;8;5
68713;PMS7003;55690;51.566;19.198;2024-03-08T04:09:39;18;9;4
68713;PMS7003;55690;51.566;19.198;2024-03-08T04:13:46;19;12;7
68713;PMS7003;55690;51.566;19.198;2024-03-08T04:17:52;11;9;7
68713;PMS7003;55690;51.566;19.198;2024-03-08T04:21:58;14;10;6
68713;PMS7003;55690;51.566;19.198;2024-03-08T04:26:04;11;10;7
68713;PMS7003;55690;51.566;19.198;2024-03-08T04:30:11;15;10;7
68713;PMS7003;55690;51.566;19.198;2024-03-08T04:34:17;12;9;6
68713;PMS7003;55690;51.566;19.198;2024-03-08T04:38:23;14;10;6
68713;PMS7003;55690;51.566;19.198;2024-03-08T04:42:29;13;9;7
68713;PMS7003;55690;51.566;19.198;2024-03-08T04:46:35;16;4;2
68713;PMS7003;55690;51.566;19.198;2024-03-08T04:50:41;17;8;5
68713;PMS7003;55690;51.566;19.198;2024-03-08T04:54:48;8;7;4
68713;PMS7003;55690;51.566;19.198;2024-03-08T04:58:54;21;9;7
68713;PMS7003;55690;51.566;19.198;2024-03-08T05:03:00;10;10;7
68713;PMS7003;55690;51.566;19.198;2024-03-08T05:07:06;17;9;7
68713;PMS7003;55690;51.566;19.198;2024-03-08T05:11:12;17;13;8
68713;PMS7003;55690;51.566;19.198;2024-03-08T05:15:19;15;11;9
68713;PMS7003;55690;51.566;19.198;2024-03-08T05:19:25;13;13;9
68713;PMS7003;55690;51.566;19.198;2024-03-08T05:23:31;18;16;8
68713;PMS7003;55690;51.566;19.198;2024-03-08T05:27:37;22;17;12
68713;PMS7003;55690;51.566;19.198;2024-03-08T05:31:48;20;16;11
68713;PMS7003;55690;51.566;19.198;2024-03-08T05:35:50;32;18;13
68713;PMS7003;55690;51.566;19.198;2024-03-08T05:39:56;26;17;10
68713;PMS7003;55690;51.566;19.198;2024-03-08T05:44:02;25;17;11
68713;PMS7003;55690;51.566;19.198;2024-03-08T05:48:08;23;12;6
68713;PMS7003;55690;51.566;19.198;2024-03-08T05:52:14;29;16;13
68713;PMS7003;55690;51.566;19.198;2024-03-08T05:56:21;12;11;8
68713;PMS7003;55690;51.566;19.198;2024-03-08T06:00:27;22;10;7
68713;PMS7003;55690;51.566;19.198;2024-03-08T06:04:33;17;13;11
68713;PMS7003;55690;51.566;19.198;2024-03-08T06:08:39;25;13;10
68713;PMS7003;55690;51.566;19.198;2024-03-08T06:12:45;26;21;16
68713;PMS7003;55690;51.566;19.198;2024-03-08T06:16:51;41;25;19
68713;PMS7003;55690;51.566;19.198;2024-03-08T06:20:58;13;12;9
68713;PMS7003;55690;51.566;19.198;2024-03-08T06:25:04;21;15;9
68713;PMS7003;55690;51.566;19.198;2024-03-08T06:29:10;15;10;5
68713;PMS7003;55690;51.566;19.198;2024-03-08T06:33:17;20;13;10
68713;PMS7003;55690;51.566;19.198;2024-03-08T06:37:22;13;13;9
68713;PMS7003;55690;51.566;19.198;2024-03-08T06:41:29;30;18;13
68713;PMS7003;55690;51.566;19.198;2024-03-08T06:45:35;11;7;5
68713;PMS7003;55690;51.566;19.198;2024-03-08T06:49:42;17;10;6
68713;PMS7003;55690;51.566;19.198;2024-03-08T06:53:47;19;12;9
68713;PMS7003;55690;51.566;19.198;2024-03-08T06:57:53;19;11;8
68713;PMS7003;55690;51.566;19.198;2024-03-08T07:02:00;27;10;6
68713;PMS7003;55690;51.566;19.198;2024-03-08T07:06:06;11;11;10
68713;PMS7003;55690;51.566;19.198;2024-03-08T07:10:12;16;6;3
68713;PMS7003;55690;51.566;19.198;2024-03-08T07:14:19;36;21;17
68713;PMS7003;55690;51.566;19.198;2024-03-08T07:18:25;19;19;13
68713;PMS7003;55690;51.566;19.198;2024-03-08T07:22:31;19;15;10
68713;PMS7003;55690;51.566;19.198;2024-03-08T07:26:38;17;16;10
68713;PMS7003;55690;51.566;19.198;2024-03-08T07:30:44;31;16;12
68713;PMS7003;55690;51.566;19.198;2024-03-08T07:34:58;10;10;6
68713;PMS7003;55690;51.566;19.198;2024-03-08T07:39:00;18;9;7
68713;PMS7003;55690;51.566;19.198;2024-03-08T07:43:02;14;12;9
68713;PMS7003;55690;51.566;19.198;2024-03-08T07:47:09;14;9;7
68713;PMS7003;55690;51.566;19.198;2024-03-08T07:51:18;21;12;7
68713;PMS7003;55690;51.566;19.198;2024-03-08T07:55:21;49;35;25
68713;PMS7003;55690;51.566;19.198;2024-03-08T07:59:27;9;9;7
68713;PMS7003;55690;51.566;19.198;2024-03-08T08:03:33;16;12;11
68713;PMS7003;55690;51.566;19.198;2024-03-08T08:07:40;8;7;5
68713;PMS7003;55690;51.566;19.198;2024-03-08T08:11:46;22;15;11
68713;PMS7003;55690;51.566;19.198;2024-03-08T08:15:52;9;8;7
68713;PMS7003;55690;51.566;19.198;2024-03-08T08:19:58;14;10;6
68713;PMS7003;55690;51.566;19.198;2024-03-08T08:24:05;13;12;9
68713;PMS7003;55690;51.566;19.198;2024-03-08T08:28:10;10;10;7
68713;PMS7003;55690;51.566;19.198;2024-03-08T08:32:17;13;10;7
68713;PMS7003;55690;51.566;19.198;2024-03-08T08:36:24;12;8;6
68713;PMS7003;55690;51.566;19.198;2024-03-08T08:40:29;17;9;8
68713;PMS7003;55690;51.566;19.198;2024-03-08T08:44:35;10;10;7
68713;PMS7003;55690;51.566;19.198;2024-03-08T08:48:41;10;8;7
68713;PMS7003;55690;51.566;19.198;2024-03-08T08:52:48;19;10;6
68713;PMS7003;55690;51.566;19.198;2024-03-08T08:56:54;10;9;6
68713;PMS7003;55690;51.566;19.198;2024-03-08T09:01:00;15;11;8
68713;PMS7003;55690;51.566;19.198;2024-03-08T09:05:06;5;4;0
68713;PMS7003;55690;51.566;19.198;2024-03-08T09:09:17;11;11;8
68713;PMS7003;55690;51.566;19.198;2024-03-08T09:13:19;14;7;5
68713;PMS7003;55690;51.566;19.198;2024-03-08T09:17:25;9;7;6
68713;PMS7003;55690;51.566;19.198;2024-03-08T09:21:31;13;7;5
68713;PMS7003;55690;51.566;19.198;2024-03-08T09:25:37;17;10;6
68713;PMS7003;55690;51.566;19.198;2024-03-08T09:29:43;20;15;8
68713;PMS7003;55690;51.566;19.198;2024-03-08T09:33:49;14;11;10
68713;PMS7003;55690;51.566;19.198;2024-03-08T09:37:56;18;12;8
68713;PMS7003;55690;51.566;19.198;2024-03-08T09:42:02;8;7;2
68713;PMS7003;55690;51.566;19.198;2024-03-08T09:46:08;11;8;6
68713;PMS7003;55690;51.566;19.198;2024-03-08T09:50:14;6;6;4
68713;PMS7003;55690;51.566;19.198;2024-03-08T09:54:20;4;4;3
68713;PMS7003;55690;51.566;19.198;2024-03-08T09:58:26;8;6;5
68713;PMS7003;55690;51.566;19.198;2024-03-08T10:02:38;23;6;4
68713;PMS7003;55690;51.566;19.198;2024-03-08T10:06:40;30;12;9
68713;PMS7003;55690;51.566;19.198;2024-03-08T10:10:45;14;10;8
68713;PMS7003;55690;51.566;19.198;2024-03-08T10:14:52;6;6;4
68713;PMS7003;55690;51.566;19.198;2024-03-08T10:18:57;9;7;3
68713;PMS7003;55690;51.566;19.198;2024-03-08T10:27:01;15;8;7
68713;PMS7003;55690;51.566;19.198;2024-03-08T10:31:07;21;11;10
68713;PMS7003;55690;51.566;19.198;2024-03-08T10:35:14;13;10;9
68713;PMS7003;55690;51.566;19.198;2024-03-08T10:39:24;17;10;7
68713;PMS7003;55690;51.566;19.198;2024-03-08T10:43:26;13;7;6
68713;PMS7003;55690;51.566;19.198;2024-03-08T10:47:39;15;12;7
68713;PMS7003;55690;51.566;19.198;2024-03-08T10:51:43;15;10;8
68713;PMS7003;55690;51.566;19.198;2024-03-08T10:55:47;11;7;6
68713;PMS7003;55690;51.566;19.198;2024-03-08T10:59:54;12;9;5
68713;PMS7003;55690;51.566;19.198;2024-03-08T11:03:58;8;7;6
68713;PMS7003;55690;51.566;19.198;2024-03-08T11:12:38;13;10;7
68713;PMS7003;55690;51.566;19.198;2024-03-08T11:16:43;14;10;5
68713;PMS7003;55690;51.566;19.198;2024-03-08T11:20:47;14;5;4
68713;PMS7003;55690;51.566;19.198;2024-03-08T11:24:50;13;6;3
68713;PMS7003;55690;51.566;19.198;2024-03-08T11:28:52;13;7;5
68713;PMS7003;55690;51.566;19.198;2024-03-08T11:32:57;8;8;7
68713;PMS7003;55690;51.566;19.198;2024-03-08T11:37:04;11;8;7
68713;PMS7003;55690;51.566;19.198;2024-03-08T11:41:10;16;7;5
68713;PMS7003;55690;51.566;19.198;2024-03-08T11:45:15;10;9;7
68713;PMS7003;55690;51.566;19.198;2024-03-08T11:49:18;7;7;6
68713;PMS7003;55690;51.566;19.198;2024-03-08T11:53:20;13;8;7
68713;PMS7003;55690;51.566;19.198;2024-03-08T11:57:25;2;2;0
68713;PMS7003;55690;51.566;19.198;2024-03-08T12:01:31;12;9;6
68713;PMS7003;55690;51.566;19.198;2024-03-08T12:05:38;11;11;7
68713;PMS7003;55690;51.566;19.198;2024-03-08T12:09:43;11;7;6
68713;PMS7003;55690;51.566;19.198;2024-03-08T12:13:49;17;5;4
68713;PMS7003;55690;51.566;19.198;2024-03-08T12:17:56;14;6;5
68713;PMS7003;55690;51.566;19.198;2024-03-08T12:22:11;15;14;8
68713;PMS7003;55690;51.566;19.198;2024-03-08T12:34:54;15;7;5
68713;PMS7003;55690;51.566;19.198;2024-03-08T12:43:22;28;12;8
68713;PMS7003;55690;51.566;19.198;2024-03-08T12:51:33;9;7;4
68713;PMS7003;55690;51.566;19.198;2024-03-08T12:55:35;15;7;6
68713;PMS7003;55690;51.566;19.198;2024-03-08T12:59:36;8;5;4
68713;PMS7003;55690;51.566;19.198;2024-03-08T13:03:38;15;10;6
68713;PMS7003;55690;51.566;19.198;2024-03-08T13:07:41;6;5;4
68713;PMS7003;55690;51.566;19.198;2024-03-08T13:11:46;17;12;9
68713;PMS7003;55690;51.566;19.198;2024-03-08T13:15:48;16;11;8
68713;PMS7003;55690;51.566;19.198;2024-03-08T13:37:55;11;9;6
68713;PMS7003;55690;51.566;19.198;2024-03-08T13:41:56;13;10;8
68713;PMS7003;55690;51.566;19.198;2024-03-08T13:45:58;8;6;4
68713;PMS7003;55690;51.566;19.198;2024-03-08T13:49:59;13;9;6
68713;PMS7003;55690;51.566;19.198;2024-03-08T13:54:01;6;5;4
68713;PMS7003;55690;51.566;19.198;2024-03-08T13:58:03;12;6;4
68713;PMS7003;55690;51.566;19.198;2024-03-08T14:02:10;18;14;9
68713;PMS7003;55690;51.566;19.198;2024-03-08T14:10:18;10;6;5
68713;PMS7003;55690;51.566;19.198;2024-03-08T14:14:24;14;14;7
68713;PMS7003;55690;51.566;19.198;2024-03-08T14:18:26;13;4;3
68713;PMS7003;55690;51.566;19.198;2024-03-08T14:22:30;11;6;6
68713;PMS7003;55690;51.566;19.198;2024-03-08T14:26:32;11;7;5
68713;PMS7003;55690;51.566;19.198;2024-03-08T14:30:34;12;8;6
68713;PMS7003;55690;51.566;19.198;2024-03-08T14:34:38;16;9;6
68713;PMS7003;55690;51.566;19.198;2024-03-08T14:38:40;6;6;5
68713;PMS7003;55690;51.566;19.198;2024-03-08T14:42:42;17;9;6
68713;PMS7003;55690;51.566;19.198;2024-03-08T14:46:45;9;7;4
68713;PMS7003;55690;51.566;19.198;2024-03-08T14:50:49;22;7;6
68713;PMS7003;55690;51.566;19.198;2024-03-08T14:54:52;10;6;4
68713;PMS7003;55690;51.566;19.198;2024-03-08T14:58:54;22;13;8
68713;PMS7003;55690;51.566;19.198;2024-03-08T15:03:00;8;7;5
68713;PMS7003;55690;51.566;19.198;2024-03-08T15:07:07;15;10;9
68713;PMS7003;55690;51.566;19.198;2024-03-08T15:19:38;15;11;5
68713;PMS7003;55690;51.566;19.198;2024-03-08T15:23:41;9;9;6
68713;PMS7003;55690;51.566;19.198;2024-03-08T15:27:50;13;10;6
68713;PMS7003;55690;51.566;19.198;2024-03-08T15:31:57;9;5;5
68713;PMS7003;55690;51.566;19.198;2024-03-08T15:35:59;9;9;5
68713;PMS7003;55690;51.566;19.198;2024-03-08T15:40:12;5;5;3
68713;PMS7003;55690;51.566;19.198;2024-03-08T15:44:22;9;7;6
68713;PMS7003;55690;51.566;19.198;2024-03-08T15:48:24;8;8;6
68713;PMS7003;55690;51.566;19.198;2024-03-08T15:52:25;8;6;3
68713;PMS7003;55690;51.566;19.198;2024-03-08T15:56:28;11;11;6
68713;PMS7003;55690;51.566;19.198;2024-03-08T16:00:30;12;5;4
68713;PMS7003;55690;51.566;19.198;2024-03-08T16:04:37;4;4;2
68713;PMS7003;55690;51.566;19.198;2024-03-08T16:08:38;8;6;5
68713;PMS7003;55690;51.566;19.198;2024-03-08T16:12:40;13;9;7
68713;PMS7003;55690;51.566;19.198;2024-03-08T16:16:42;8;6;5
68713;PMS7003;55690;51.566;19.198;2024-03-08T16:20:46;3;3;1
68713;PMS7003;55690;51.566;19.198;2024-03-08T16:24:48;7;5;4
68713;PMS7003;55690;51.566;19.198;2024-03-08T16:28:53;4;3;1
68713;PMS7003;55690;51.566;19.198;2024-03-08T16:32:57;5;5;4
68713;PMS7003;55690;51.566;19.198;2024-03-08T16:37:02;10;5;4
68713;PMS7003;55690;51.566;19.198;2024-03-08T16:41:04;5;5;4
68713;PMS7003;55690;51.566;19.198;2024-03-08T16:45:07;8;8;5
68713;PMS7003;55690;51.566;19.198;2024-03-08T16:49:11;12;6;6
68713;PMS7003;55690;51.566;19.198;2024-03-08T16:53:13;5;4;3
68713;PMS7003;55690;51.566;19.198;2024-03-08T16:57:15;9;5;3
68713;PMS7003;55690;51.566;19.198;2024-03-08T17:01:17;9;6;5
68713;PMS7003;55690;51.566;19.198;2024-03-08T17:05:29;8;7;6
68713;PMS7003;55690;51.566;19.198;2024-03-08T17:09:32;10;6;5
68713;PMS7003;55690;51.566;19.198;2024-03-08T17:13:38;6;6;3
68713;PMS7003;55690;51.566;19.198;2024-03-08T17:17:40;10;5;3
68713;PMS7003;55690;51.566;19.198;2024-03-08T17:21:43;6;4;3
68713;PMS7003;55690;51.566;19.198;2024-03-08T17:25:46;7;3;2
68713;PMS7003;55690;51.566;19.198;2024-03-08T17:29:50;11;4;2
68713;PMS7003;55690;51.566;19.198;2024-03-08T17:33:56;12;5;3
68713;PMS7003;55690;51.566;19.198;2024-03-08T17:38:07;7;6;3
68713;PMS7003;55690;51.566;19.198;2024-03-08T17:42:12;14;8;6
68713;PMS7003;55690;51.566;19.198;2024-03-08T17:46:14;19;9;7
68713;PMS7003;55690;51.566;19.198;2024-03-08T17:50:20;17;10;9
68713;PMS7003;55690;51.566;19.198;2024-03-08T17:54:27;16;12;9
68713;PMS7003;55690;51.566;19.198;2024-03-08T17:58:34;20;17;13
68713;PMS7003;55690;51.566;19.198;2024-03-08T18:02:37;15;15;11
68713;PMS7003;55690;51.566;19.198;2024-03-08T18:06:43;17;17;14
68713;PMS7003;55690;51.566;19.198;2024-03-08T18:10:50;33;23;18
68713;PMS7003;55690;51.566;19.198;2024-03-08T18:14:56;40;33;22
68713;PMS7003;55690;51.566;19.198;2024-03-08T18:19:02;29;25;20
68713;PMS7003;55690;51.566;19.198;2024-03-08T18:23:11;23;20;12
68713;PMS7003;55690;51.566;19.198;2024-03-08T18:27:14;34;25;18
68713;PMS7003;55690;51.566;19.198;2024-03-08T18:31:20;27;15;10
68713;PMS7003;55690;51.566;19.198;2024-03-08T18:35:28;42;21;15
68713;PMS7003;55690;51.566;19.198;2024-03-08T18:39:34;13;5;2
68713;PMS7003;55690;51.566;19.198;2024-03-08T18:43:41;17;15;9
68713;PMS7003;55690;51.566;19.198;2024-03-08T18:47:48;35;18;14
68713;PMS7003;55690;51.566;19.198;2024-03-08T18:51:52;30;19;15
68713;PMS7003;55690;51.566;19.198;2024-03-08T18:55:59;27;21;16
68713;PMS7003;55690;51.566;19.198;2024-03-08T19:00:06;28;16;13
68713;PMS7003;55690;51.566;19.198;2024-03-08T19:04:19;32;29;21
68713;PMS7003;55690;51.566;19.198;2024-03-08T19:08:26;34;28;19
68713;PMS7003;55690;51.566;19.198;2024-03-08T19:12:27;37;27;18
68713;PMS7003;55690;51.566;19.198;2024-03-08T19:16:33;47;32;21
68713;PMS7003;55690;51.566;19.198;2024-03-08T19:20:42;42;31;20
68713;PMS7003;55690;51.566;19.198;2024-03-08T19:24:44;49;36;22
68713;PMS7003;55690;51.566;19.198;2024-03-08T19:28:49;30;23;15
68713;PMS7003;55690;51.566;19.198;2024-03-08T19:32:54;42;28;15
68713;PMS7003;55690;51.566;19.198;2024-03-08T19:37:00;32;21;16
68713;PMS7003;55690;51.566;19.198;2024-03-08T19:41:07;38;30;21
68713;PMS7003;55690;51.566;19.198;2024-03-08T19:45:13;42;30;19
68713;PMS7003;55690;51.566;19.198;2024-03-08T19:49:19;41;30;20
68713;PMS7003;55690;51.566;19.198;2024-03-08T19:53:25;36;27;19
68713;PMS7003;55690;51.566;19.198;2024-03-08T19:57:31;37;29;19
68713;PMS7003;55690;51.566;19.198;2024-03-08T20:01:38;46;27;19
68713;PMS7003;55690;51.566;19.198;2024-03-08T20:05:44;30;22;17
68713;PMS7003;55690;51.566;19.198;2024-03-08T20:09:50;27;4;0
68713;PMS7003;55690;51.566;19.198;2024-03-08T20:13:56;33;19;14
68713;PMS7003;55690;51.566;19.198;2024-03-08T20:18:02;38;29;19
68713;PMS7003;55690;51.566;19.198;2024-03-08T20:22:08;34;27;15
68713;PMS7003;55690;51.566;19.198;2024-03-08T20:26:15;37;22;14
68713;PMS7003;55690;51.566;19.198;2024-03-08T20:30:22;25;20;14
68713;PMS7003;55690;51.566;19.198;2024-03-08T20:34:30;18;14;11
68713;PMS7003;55690;51.566;19.198;2024-03-08T20:38:35;19;13;11
68713;PMS7003;55690;51.566;19.198;2024-03-08T20:42:40;23;20;13
68713;PMS7003;55690;51.566;19.198;2024-03-08T20:46:46;16;13;8
68713;PMS7003;55690;51.566;19.198;2024-03-08T20:50:52;20;15;9
68713;PMS7003;55690;51.566;19.198;2024-03-08T20:54:58;17;17;10
68713;PMS7003;55690;51.566;19.198;2024-03-08T20:59:04;37;19;14
68713;PMS7003;55690;51.566;19.198;2024-03-08T21:03:11;23;18;12
68713;PMS7003;55690;51.566;19.198;2024-03-08T21:07:17;35;20;13
68713;PMS7003;55690;51.566;19.198;2024-03-08T21:11:23;25;20;12
68713;PMS7003;55690;51.566;19.198;2024-03-08T21:15:29;37;24;16
68713;PMS7003;55690;51.566;19.198;2024-03-08T21:19:35;29;23;15
68713;PMS7003;55690;51.566;19.198;2024-03-08T21:23:41;36;19;13
68713;PMS7003;55690;51.566;19.198;2024-03-08T21:27:48;15;15;12
68713;PMS7003;55690;51.566;19.198;2024-03-08T21:31:54;21;18;8
68713;PMS7003;55690;51.566;19.198;2024-03-08T21:36:00;25;19;12
68713;PMS7003;55690;51.566;19.198;2024-03-08T21:40:06;23;20;14
68713;PMS7003;55690;51.566;19.198;2024-03-08T21:44:19;19;17;11
68713;PMS7003;55690;51.566;19.198;2024-03-08T21:48:20;22;18;12
68713;PMS7003;55690;51.566;19.198;2024-03-08T21:52:25;42;23;15
68713;PMS7003;55690;51.566;19.198;2024-03-08T21:56:31;26;14;11
68713;PMS7003;55690;51.566;19.198;2024-03-08T22:00:37;22;14;10
68713;PMS7003;55690;51.566;19.198;2024-03-08T22:04:43;21;19;13
68713;PMS7003;55690;51.566;19.198;2024-03-08T22:08:50;28;17;12
68713;PMS7003;55690;51.566;19.198;2024-03-08T22:12:56;28;22;15
68713;PMS7003;55690;51.566;19.198;2024-03-08T22:17:02;22;16;8
68713;PMS7003;55690;51.566;19.198;2024-03-08T22:21:08;16;14;9
68713;PMS7003;55690;51.566;19.198;2024-03-08T22:25:14;38;17;10
68713;PMS7003;55690;51.566;19.198;2024-03-08T22:29:21;33;18;12
68713;PMS7003;55690;51.566;19.198;2024-03-08T22:33:27;22;12;10
68713;PMS7003;55690;51.566;19.198;2024-03-08T22:37:33;34;16;12
68713;PMS7003;55690;51.566;19.198;2024-03-08T22:41:39;14;13;8
68713;PMS7003;55690;51.566;19.198;2024-03-08T22:45:45;26;21;13
68713;PMS7003;55690;51.566;19.198;2024-03-08T22:49:51;14;12;9
68713;PMS7003;55690;51.566;19.198;2024-03-08T22:53:57;21;17;13
68713;PMS7003;55690;51.566;19.198;2024-03-08T22:58:04;27;17;11
68713;PMS7003;55690;51.566;19.198;2024-03-08T23:02:10;22;15;9
68713;PMS7003;55690;51.566;19.198;2024-03-08T23:06:16;24;20;13
68713;PMS7003;55690;51.566;19.198;2024-03-08T23:10:22;14;8;7
68713;PMS7003;55690;51.566;19.198;2024-03-08T23:14:29;33;19;11
68713;PMS7003;55690;51.566;19.198;2024-03-08T23:18:35;25;19;12
68713;PMS7003;55690;51.566;19.198;2024-03-08T23:22:41;29;22;15
68713;PMS7003;55690;51.566;19.198;2024-03-08T23:26:50;17;17;13
68713;PMS7003;55690;51.566;19.198;2024-03-08T23:30:53;28;12;9
68713;PMS7003;55690;51.566;19.198;2024-03-08T23:34:59;29;16;11
68713;PMS7003;55690;51.566;19.198;2024-03-08T23:39:06;17;17;11
68713;PMS7003;55690;51.566;19.198;2024-03-08T23:43:12;16;11;5
68713;PMS7003;55690;51.566;19.198;2024-03-08T23:47:18;11;8;6
68713;PMS7003;55690;51.566;19.198;2024-03-08T23:51:24;34;18;13
68713;PMS7003;55690;51.566;19.198;2024-03-08T23:55:31;12;11;8
68713;PMS7003;55690;51.566;19.198;2024-03-08T23:59:37;28;22;12
